Terminal Aerodrome Forecast
Issued by NWS

Home | Current Version | Previous Version | Text Only | Print | Product List | Glossary On
Versions: 1 2 3 4 5 6 7 8 9 10 11 12 13 14 15
000
FTUS45 KVEF 260859 AAA
TAFBIH
TAF AMD
KBIH 260859Z 2609/2706 34012KT P6SM FEW100
     FM262100 35025G34KT P6SM SCT250=

USA.gov is the U.S. government's official web portal to all federal, state and local government web resources and services.